createdAt,value
2023-01-11T00:02:27.938Z,1.70
2023-01-11T00:04:56.117Z,1.90
2023-01-11T00:07:24.053Z,2.17
2023-01-11T00:09:52.017Z,2.47
2023-01-11T00:12:20.019Z,1.20
2023-01-11T00:14:48.084Z,3.20
2023-01-11T00:17:17.341Z,3.70
2023-01-11T00:19:45.195Z,0.90
2023-01-11T00:22:13.176Z,1.40
2023-01-11T00:24:41.261Z,2.07
2023-01-11T00:27:09.133Z,1.83
2023-01-11T00:29:37.201Z,2.63
2023-01-11T00:32:05.573Z,1.33
2023-01-11T00:34:36.272Z,3.27
2023-01-11T00:37:04.521Z,0.90
2023-01-11T00:39:32.492Z,2.67
2023-01-11T00:42:18.098Z,2.83
2023-01-11T00:45:03.766Z,2.70
2023-01-11T00:47:48.995Z,1.70
2023-01-11T00:50:18.476Z,2.03
2023-01-11T00:52:46.464Z,1.70
2023-01-11T00:55:14.375Z,0.90
2023-01-11T00:57:42.304Z,1.83
2023-01-11T01:00:11.571Z,1.43
2023-01-11T01:02:39.711Z,1.47
2023-01-11T01:05:08.469Z,2.87
2023-01-11T01:07:38.204Z,1.40
2023-01-11T01:10:08.127Z,1.50
2023-01-11T01:12:53.865Z,3.80
2023-01-11T01:15:22.082Z,1.53
2023-01-11T01:17:50.131Z,1.17
2023-01-11T01:20:18.399Z,1.50
2023-01-11T01:22:47.826Z,2.90
2023-01-11T01:25:16.221Z,1.30
2023-01-11T01:27:44.448Z,0.70
2023-01-11T01:30:12.915Z,2.70
2023-01-11T01:32:41.167Z,2.87
2023-01-11T01:35:09.921Z,1.33
2023-01-11T01:37:37.899Z,2.20
2023-01-11T01:40:08.689Z,1.60
2023-01-11T01:42:37.075Z,0.60
2023-01-11T01:45:08.064Z,2.60
2023-01-11T01:47:44.337Z,3.03
2023-01-11T01:50:18.261Z,1.33
2023-01-11T01:52:49.670Z,0.70
2023-01-11T01:55:26.517Z,2.53
2023-01-11T01:57:57.634Z,0.90
2023-01-11T02:00:25.995Z,1.70
2023-01-11T02:02:54.533Z,1.30
2023-01-11T02:05:23.014Z,1.73
2023-01-11T02:07:52.116Z,2.57
2023-01-11T02:10:27.334Z,0.97
2023-01-11T02:13:00.131Z,2.13
2023-01-11T02:15:28.704Z,2.87
2023-01-11T02:17:56.869Z,1.37
2023-01-11T02:20:43.625Z,1.23
2023-01-11T02:23:31.693Z,1.90
2023-01-11T02:26:41.466Z,0.97
2023-01-11T02:29:21.027Z,2.27
2023-01-11T02:31:58.239Z,1.90
2023-01-11T02:34:41.789Z,1.00
2023-01-11T02:37:19.147Z,0.70
2023-01-11T02:40:00.144Z,0.90
2023-01-11T02:42:57.074Z,1.80
2023-01-11T02:45:39.455Z,0.80
2023-01-11T02:48:19.051Z,3.00
2023-01-11T02:50:53.122Z,2.30
2023-01-11T02:53:28.137Z,0.90
2023-01-11T02:56:00.281Z,1.40
2023-01-11T02:58:31.222Z,0.70
2023-01-11T03:01:01.572Z,1.20
2023-01-11T03:03:29.460Z,0.80
2023-01-11T03:06:01.919Z,1.90
2023-01-11T03:08:50.774Z,2.40
2023-01-11T03:11:45.985Z,1.17
2023-01-11T03:14:20.959Z,0.80
2023-01-11T03:16:56.114Z,0.93
2023-01-11T03:19:32.656Z,1.10
2023-01-11T03:22:08.288Z,0.60
2023-01-11T03:24:45.605Z,1.20
2023-01-11T03:27:22.781Z,0.90
2023-01-11T03:29:54.866Z,1.50
2023-01-11T03:32:33.854Z,1.23
2023-01-11T03:35:11.830Z,1.30
2023-01-11T03:37:44.796Z,2.33
2023-01-11T03:40:17.604Z,1.30
2023-01-11T03:43:07.343Z,1.80
2023-01-11T03:45:40.501Z,0.67
2023-01-11T03:48:13.728Z,1.70
2023-01-11T03:50:42.807Z,0.40
2023-01-11T03:53:12.104Z,1.13
2023-01-11T03:55:42.697Z,1.27
2023-01-11T03:58:11.344Z,1.23
2023-01-11T04:00:39.985Z,0.53
2023-01-11T04:03:12.471Z,0.90
2023-01-11T04:05:43.785Z,1.03
2023-01-11T04:08:11.860Z,0.60
2023-01-11T04:10:40.328Z,1.73
2023-01-11T04:13:08.219Z,0.40
2023-01-11T04:15:36.340Z,0.70
2023-01-11T04:18:05.841Z,1.57
2023-01-11T04:20:36.421Z,1.13
2023-01-11T04:23:05.139Z,1.20
2023-01-11T04:25:33.662Z,0.40
2023-01-11T04:28:01.695Z,0.50
2023-01-11T04:30:29.689Z,0.57
2023-01-11T04:32:59.133Z,0.57
2023-01-11T04:35:27.585Z,1.03
2023-01-11T04:37:57.208Z,0.37
2023-01-11T04:40:25.569Z,0.83
2023-01-11T04:42:52.552Z,1.77
2023-01-11T04:45:20.780Z,0.60
2023-01-11T04:47:55.377Z,0.80
2023-01-11T04:50:23.807Z,0.47
2023-01-11T04:52:52.010Z,1.00
2023-01-11T04:55:21.689Z,0.53
2023-01-11T04:57:49.784Z,0.70
2023-01-11T05:00:18.475Z,0.50
2023-01-11T05:02:46.913Z,1.07
2023-01-11T05:05:14.937Z,0.60
2023-01-11T05:07:42.865Z,1.30
2023-01-11T05:10:12.044Z,0.50
2023-01-11T05:12:41.225Z,1.47
2023-01-11T05:15:10.578Z,0.40
2023-01-11T05:17:38.470Z,0.97
2023-01-11T05:20:07.019Z,0.37
2023-01-11T05:22:35.054Z,0.40
2023-01-11T05:25:03.086Z,1.93
2023-01-11T05:27:31.000Z,0.73
2023-01-11T05:30:00.216Z,1.77
2023-01-11T05:32:28.211Z,0.57
2023-01-11T05:34:56.246Z,0.57
2023-01-11T05:37:24.108Z,1.27
2023-01-11T05:39:52.102Z,1.00
2023-01-11T05:42:20.105Z,0.47
2023-01-11T05:45:06.187Z,1.23
2023-01-11T05:47:35.420Z,0.63
2023-01-11T05:50:03.602Z,0.50
2023-01-11T05:52:31.499Z,0.53
2023-01-11T05:54:59.366Z,0.70
2023-01-11T05:57:27.375Z,1.50
2023-01-11T05:59:55.323Z,0.97
2023-01-11T06:02:23.311Z,0.60
2023-01-11T06:04:54.415Z,0.63
2023-01-11T06:07:25.204Z,0.63
2023-01-11T06:09:53.193Z,0.63
2023-01-11T06:12:21.226Z,1.10
2023-01-11T06:14:49.167Z,1.63
2023-01-11T06:17:17.072Z,0.97
2023-01-11T06:19:44.982Z,0.53
2023-01-11T06:22:14.273Z,1.00
2023-01-11T06:24:42.150Z,0.60
2023-01-11T06:27:10.872Z,0.50
2023-01-11T06:29:38.880Z,1.03
2023-01-11T06:32:08.676Z,0.43
2023-01-11T06:34:36.558Z,1.03
2023-01-11T06:37:04.480Z,0.97
2023-01-11T06:39:33.845Z,2.07
2023-01-11T06:42:01.701Z,1.20
2023-01-11T06:44:29.562Z,0.60
2023-01-11T06:46:58.337Z,0.70
2023-01-11T06:49:26.315Z,0.67
2023-01-11T06:51:54.254Z,0.77
2023-01-11T06:54:24.243Z,1.53
2023-01-11T06:56:53.585Z,1.97
2023-01-11T06:59:21.585Z,2.37
2023-01-11T07:01:50.016Z,1.20
2023-01-11T07:04:18.672Z,2.17
2023-01-11T07:06:46.630Z,0.70
2023-01-11T07:09:14.613Z,0.40
2023-01-11T07:11:42.588Z,2.60
2023-01-11T07:14:12.140Z,0.70
2023-01-11T07:16:40.022Z,1.90
2023-01-11T07:19:08.334Z,0.70
2023-01-11T07:21:36.277Z,0.50
2023-01-11T07:24:04.427Z,1.80
2023-01-11T07:26:33.063Z,2.10
2023-01-11T07:29:01.056Z,1.17
2023-01-11T07:31:30.330Z,1.93
2023-01-11T07:33:58.398Z,1.03
2023-01-11T07:36:26.427Z,0.60
2023-01-11T07:38:54.473Z,1.03
2023-01-11T07:41:39.987Z,0.97
2023-01-11T07:44:12.707Z,0.70
2023-01-11T07:46:42.019Z,1.87
2023-01-11T07:49:10.077Z,1.33
2023-01-11T07:51:38.190Z,1.00
2023-01-11T07:54:06.314Z,0.70
2023-01-11T07:56:34.311Z,0.70
2023-01-11T07:59:02.229Z,1.23
2023-01-11T08:01:30.141Z,0.80
2023-01-11T08:03:59.611Z,1.33
2023-01-11T08:06:27.459Z,1.47
2023-01-11T08:08:55.429Z,0.90
2023-01-11T08:11:40.878Z,0.63
2023-01-11T08:14:29.109Z,0.40
2023-01-11T08:16:57.020Z,0.70
2023-01-11T08:19:26.271Z,0.97
2023-01-11T08:21:54.128Z,0.60
2023-01-11T08:24:22.542Z,1.43
2023-01-11T08:26:50.452Z,1.00
2023-01-11T08:29:18.310Z,0.67
2023-01-11T08:31:46.739Z,1.00
2023-01-11T08:34:15.070Z,0.83
2023-01-11T08:36:44.391Z,0.60
2023-01-11T08:39:12.408Z,1.00
2023-01-11T08:41:40.429Z,0.57
2023-01-11T08:44:09.274Z,0.67
2023-01-11T08:46:38.080Z,0.60
2023-01-11T08:49:11.935Z,0.60
2023-01-11T08:51:40.690Z,0.60
2023-01-11T08:54:12.767Z,1.67
2023-01-11T08:56:41.158Z,0.77
2023-01-11T08:59:11.223Z,0.60
2023-01-11T09:01:39.467Z,1.40
2023-01-11T09:04:23.115Z,0.83
2023-01-11T09:06:51.634Z,0.90
2023-01-11T09:09:20.945Z,0.83
2023-01-11T09:11:54.898Z,0.73
2023-01-11T09:14:23.346Z,1.07
2023-01-11T09:16:51.314Z,2.23
2023-01-11T09:19:19.311Z,0.57
2023-01-11T09:21:47.274Z,1.00
2023-01-11T09:24:15.565Z,0.70
2023-01-11T09:26:44.812Z,1.23
2023-01-11T09:29:12.880Z,1.00
2023-01-11T09:31:41.080Z,0.70
2023-01-11T09:34:10.908Z,0.80
2023-01-11T09:36:40.061Z,0.93
2023-01-11T09:39:11.604Z,0.40
2023-01-11T09:42:08.888Z,0.60
2023-01-11T09:44:42.111Z,1.13
2023-01-11T09:47:16.485Z,0.60
2023-01-11T09:49:51.916Z,0.50
2023-01-11T09:52:33.133Z,0.60
2023-01-11T09:55:02.357Z,1.17
2023-01-11T09:57:43.543Z,0.53
2023-01-11T10:00:26.456Z,0.60
2023-01-11T10:03:13.613Z,0.47
2023-01-11T10:05:56.430Z,0.80
2023-01-11T10:18:32.082Z,1.00
2023-01-11T10:18:33.920Z,0.80
2023-01-11T10:20:37.760Z,0.80
2023-01-11T10:23:12.346Z,1.03
2023-01-11T10:25:47.989Z,1.10
2023-01-11T10:28:24.986Z,1.37
2023-01-11T10:31:11.110Z,1.83
2023-01-11T10:33:57.436Z,0.50
2023-01-11T10:36:51.656Z,2.40
2023-01-11T10:39:46.426Z,0.57
2023-01-11T10:42:21.280Z,0.60
2023-01-11T10:44:57.711Z,0.60
2023-01-11T10:47:30.444Z,1.43
2023-01-11T10:50:06.056Z,1.10
2023-01-11T10:52:41.412Z,1.63
2023-01-11T10:55:14.337Z,0.57
2023-01-11T10:58:01.719Z,1.23
2023-01-11T11:00:40.613Z,0.80
2023-01-11T11:03:43.057Z,0.50
2023-01-11T11:06:16.356Z,0.60
2023-01-11T11:08:50.892Z,1.67
2023-01-11T11:11:23.216Z,0.70
2023-01-11T11:13:58.995Z,0.73
2023-01-11T11:16:39.516Z,0.97
2023-01-11T11:19:16.064Z,0.90
2023-01-11T11:21:44.489Z,0.63
2023-01-11T11:24:22.112Z,2.20
2023-01-11T11:26:57.216Z,1.67
2023-01-11T11:29:30.591Z,0.83
2023-01-11T11:32:00.957Z,0.57
2023-01-11T11:34:31.085Z,1.30
2023-01-11T11:37:01.834Z,0.93
2023-01-11T11:39:32.027Z,1.23
2023-01-11T11:42:06.681Z,0.83
2023-01-11T11:44:35.436Z,1.30
2023-01-11T11:47:05.496Z,1.37
2023-01-11T11:49:36.184Z,0.90
2023-01-11T11:52:06.503Z,1.67
2023-01-11T11:54:37.898Z,1.30
2023-01-11T11:57:16.453Z,1.93
2023-01-11T11:59:47.838Z,1.23
2023-01-11T12:02:25.226Z,1.40
2023-01-11T12:04:57.444Z,1.20
2023-01-11T12:07:30.776Z,0.70
2023-01-11T12:10:01.598Z,1.37
2023-01-11T12:12:29.844Z,1.50
2023-01-11T12:15:23.079Z,0.70
2023-01-11T12:17:51.931Z,0.73
2023-01-11T12:20:47.140Z,0.70
2023-01-11T12:23:21.474Z,0.50
2023-01-11T12:26:15.756Z,1.17
2023-01-11T12:28:57.641Z,1.43
2023-01-11T12:31:37.163Z,1.37
2023-01-11T12:34:17.410Z,1.40
2023-01-11T12:36:56.110Z,0.63
2023-01-11T12:39:33.380Z,1.40
2023-01-11T12:42:16.615Z,1.83
2023-01-11T12:44:58.891Z,0.57
2023-01-11T12:47:50.805Z,1.10
2023-01-11T12:50:24.917Z,1.70
2023-01-11T12:53:10.576Z,1.13
2023-01-11T12:55:53.102Z,1.73
2023-01-11T12:58:26.326Z,1.17
2023-01-11T13:01:12.235Z,0.70
2023-01-11T13:04:11.953Z,0.60
2023-01-11T13:06:43.592Z,1.33
2023-01-11T13:09:25.281Z,0.60
2023-01-11T13:12:00.556Z,1.10
2023-01-11T13:14:46.764Z,1.13
2023-01-11T13:17:26.782Z,0.90
2023-01-11T13:20:10.529Z,0.60
2023-01-11T13:22:42.950Z,0.90
2023-01-11T13:25:18.449Z,0.80
2023-01-11T13:27:47.660Z,0.80
2023-01-11T13:30:17.809Z,1.00
2023-01-11T13:32:52.161Z,0.70
2023-01-11T13:35:24.424Z,0.70
2023-01-11T13:37:57.648Z,2.67
2023-01-11T13:40:30.577Z,1.30
2023-01-11T13:43:05.193Z,0.93
2023-01-11T13:45:39.843Z,1.00
2023-01-11T13:48:16.770Z,1.30
2023-01-11T13:50:52.351Z,1.53
2023-01-11T13:53:28.270Z,1.00
2023-01-11T13:56:03.200Z,0.87
2023-01-11T13:58:37.101Z,0.77
2023-01-11T14:01:08.949Z,0.90
2023-01-11T14:03:46.202Z,0.87
2023-01-11T14:06:31.440Z,1.70
2023-01-11T14:09:16.251Z,0.50
2023-01-11T14:11:53.463Z,1.20
2023-01-11T14:14:54.686Z,1.03
2023-01-11T14:17:38.336Z,0.50
2023-01-11T14:20:18.949Z,1.10
2023-01-11T14:22:57.320Z,4.10
2023-01-11T14:25:31.569Z,3.83
2023-01-11T14:28:16.708Z,1.80
2023-01-11T14:31:21.251Z,1.07
2023-01-11T14:34:07.937Z,1.20
2023-01-11T14:36:57.452Z,1.83
2023-01-11T14:39:54.894Z,1.30
2023-01-11T14:42:51.269Z,0.70
2023-01-11T14:45:46.635Z,0.90
2023-01-11T14:48:27.591Z,0.93
2023-01-11T14:51:08.557Z,0.77
2023-01-11T14:53:42.145Z,1.67
2023-01-11T14:56:38.895Z,0.50
2023-01-11T14:59:24.795Z,1.77
2023-01-11T15:02:25.349Z,2.20
2023-01-11T15:05:28.470Z,0.70
2023-01-11T15:08:20.648Z,1.93
2023-01-11T15:10:53.063Z,0.67
2023-01-11T15:13:23.757Z,0.70
2023-01-11T15:16:10.907Z,1.67
2023-01-11T15:18:47.442Z,3.60
2023-01-11T15:21:19.298Z,1.93
2023-01-11T15:23:51.615Z,1.10
2023-01-11T15:26:21.282Z,0.73
2023-01-11T15:28:51.723Z,1.10
2023-01-11T15:31:35.068Z,1.37
2023-01-11T15:34:17.900Z,1.53
2023-01-11T15:37:11.161Z,2.20
2023-01-11T15:39:46.101Z,1.30
2023-01-11T15:42:42.364Z,1.70
2023-01-11T15:46:01.904Z,2.13
2023-01-11T15:48:42.756Z,1.27
2023-01-11T15:51:30.009Z,3.57
2023-01-11T15:54:16.566Z,1.00
2023-01-11T15:57:10.721Z,4.30
2023-01-11T16:00:22.452Z,2.73
2023-01-11T16:03:14.440Z,2.50
2023-01-11T16:05:51.214Z,1.50
2023-01-11T16:08:27.346Z,1.93
2023-01-11T16:11:09.587Z,2.30
2023-01-11T16:13:52.782Z,2.90
2023-01-11T16:16:23.659Z,3.17
2023-01-11T16:18:56.417Z,3.60
2023-01-11T16:21:32.882Z,2.57
2023-01-11T16:24:03.170Z,4.97
2023-01-11T16:26:31.306Z,1.83
2023-01-11T16:29:00.216Z,1.83
2023-01-11T16:31:55.643Z,2.90
2023-01-11T16:34:23.878Z,3.30
2023-01-11T16:36:51.945Z,3.83
2023-01-11T16:39:23.882Z,8.40
2023-01-11T16:41:56.136Z,3.00
2023-01-11T16:44:34.880Z,6.93
2023-01-11T16:47:14.425Z,3.57
2023-01-11T16:49:48.655Z,2.67
2023-01-11T16:52:45.195Z,2.57
2023-01-11T16:55:34.074Z,5.47
2023-01-11T16:58:05.757Z,2.90
2023-01-11T17:00:39.638Z,6.63
2023-01-11T17:03:29.827Z,3.23
2023-01-11T17:06:14.468Z,4.47
2023-01-11T17:08:43.911Z,3.53
2023-01-11T17:11:28.449Z,5.63
2023-01-11T17:14:26.097Z,5.67
2023-01-11T17:16:59.042Z,4.13
2023-01-11T17:19:29.787Z,4.77
2023-01-11T17:22:03.455Z,5.77
2023-01-11T17:24:34.377Z,3.17
2023-01-11T17:27:05.737Z,4.60
2023-01-11T17:29:38.566Z,4.30
2023-01-11T17:32:08.884Z,4.30
2023-01-11T17:34:38.306Z,5.80
2023-01-11T17:37:10.716Z,3.93
2023-01-11T17:39:42.862Z,5.87
2023-01-11T17:42:32.562Z,3.37
2023-01-11T17:45:15.735Z,4.40
2023-01-11T17:47:46.438Z,6.43
2023-01-11T17:50:25.232Z,6.37
2023-01-11T17:53:02.941Z,6.83
2023-01-11T17:55:31.330Z,44.40
2023-01-11T17:58:22.619Z,14.63
2023-01-11T18:01:20.216Z,9.27
2023-01-11T18:03:50.082Z,5.03
2023-01-11T18:06:24.675Z,5.53
2023-01-11T18:08:54.701Z,3.03
2023-01-11T18:11:25.429Z,3.60
2023-01-11T18:13:57.260Z,4.57
2023-01-11T18:16:25.480Z,4.67
2023-01-11T18:18:55.022Z,6.63
2023-01-11T18:21:41.049Z,4.20
2023-01-11T18:24:28.051Z,3.43
2023-01-11T18:27:08.943Z,3.67
2023-01-11T18:30:06.053Z,6.00
2023-01-11T18:32:37.545Z,3.83
2023-01-11T18:35:06.557Z,4.60
2023-01-11T18:37:34.576Z,5.90
2023-01-11T18:40:03.239Z,4.33
2023-01-11T18:42:32.448Z,5.00
2023-01-11T18:45:00.380Z,3.63
2023-01-11T18:47:30.443Z,4.23
2023-01-11T18:49:59.063Z,5.33
2023-01-11T18:52:29.384Z,3.83
2023-01-11T18:54:57.880Z,4.37
2023-01-11T18:57:28.947Z,3.80
2023-01-11T18:59:57.138Z,8.00
2023-01-11T19:02:27.396Z,5.23
2023-01-11T19:04:58.078Z,6.83
2023-01-11T19:07:27.116Z,5.10
2023-01-11T19:09:56.042Z,6.13
2023-01-11T19:12:24.828Z,5.07
2023-01-11T19:14:52.900Z,4.80
2023-01-11T19:17:21.088Z,5.83
2023-01-11T19:19:49.029Z,4.43
2023-01-11T19:22:18.379Z,4.67
2023-01-11T19:24:46.327Z,4.80
2023-01-11T19:27:14.369Z,2.70
2023-01-11T19:29:42.363Z,2.40
2023-01-11T19:32:10.283Z,4.23
2023-01-11T19:34:39.663Z,4.10
2023-01-11T19:37:08.422Z,6.13
2023-01-11T19:39:40.239Z,6.80
2023-01-11T19:42:08.433Z,6.03
2023-01-11T19:44:39.040Z,4.47
2023-01-11T19:47:11.899Z,2.87
2023-01-11T19:49:41.979Z,5.80
2023-01-11T19:52:13.357Z,3.70
2023-01-11T19:54:44.412Z,3.97
2023-01-11T19:57:14.463Z,4.87
2023-01-11T19:59:42.912Z,5.37
2023-01-11T20:02:12.706Z,6.83
2023-01-11T20:04:41.049Z,5.67
2023-01-11T20:07:11.018Z,5.37
2023-01-11T20:09:39.623Z,5.83
2023-01-11T20:12:10.627Z,5.50
2023-01-11T20:14:40.336Z,3.87
2023-01-11T20:17:08.784Z,5.13
2023-01-11T20:19:36.882Z,5.80
2023-01-11T20:22:05.192Z,4.27
2023-01-11T20:24:33.173Z,6.63
2023-01-11T20:27:02.601Z,4.47
2023-01-11T20:29:32.099Z,8.60
2023-01-11T20:32:18.670Z,4.13
2023-01-11T20:34:48.148Z,6.93
2023-01-11T20:37:16.400Z,9.97
2023-01-11T20:39:44.597Z,6.03
2023-01-11T20:42:12.939Z,5.00
2023-01-11T20:44:42.328Z,7.83
2023-01-11T20:47:10.359Z,9.37
2023-01-11T20:49:38.653Z,4.77
2023-01-11T20:52:06.725Z,9.00
2023-01-11T20:54:34.747Z,7.33
2023-01-11T20:57:05.479Z,11.93
2023-01-11T20:59:33.441Z,7.83
2023-01-11T21:02:02.679Z,6.50
2023-01-11T21:04:31.218Z,8.80
2023-01-11T21:06:59.079Z,7.83
2023-01-11T21:09:27.081Z,5.73
2023-01-11T21:11:54.989Z,8.67
2023-01-11T21:14:23.429Z,8.07
2023-01-11T21:16:54.736Z,5.50
2023-01-11T21:19:25.783Z,7.57
2023-01-11T21:21:53.831Z,5.97
2023-01-11T21:24:21.790Z,8.33
2023-01-11T21:26:49.761Z,4.70
2023-01-11T21:29:17.663Z,9.80
2023-01-11T21:31:45.571Z,6.37
2023-01-11T21:34:14.466Z,8.30
2023-01-11T21:36:44.643Z,6.30
2023-01-11T21:39:14.362Z,5.63
2023-01-11T21:41:58.569Z,6.10
2023-01-11T21:44:33.308Z,7.43
2023-01-11T21:47:02.223Z,4.90
2023-01-11T21:49:30.562Z,9.10
2023-01-11T21:52:00.744Z,4.83
2023-01-11T21:54:28.785Z,3.70
2023-01-11T21:56:56.626Z,9.50
2023-01-11T21:59:24.683Z,5.07
2023-01-11T22:01:52.761Z,4.37
2023-01-11T22:04:22.439Z,4.40
2023-01-11T22:06:54.478Z,4.70
2023-01-11T22:09:25.194Z,4.40
2023-01-11T22:11:53.068Z,2.57
2023-01-11T22:14:21.123Z,5.97
2023-01-11T22:16:49.031Z,5.27
2023-01-11T22:19:17.596Z,4.90
2023-01-11T22:21:45.472Z,5.97
2023-01-11T22:24:13.561Z,4.20
2023-01-11T22:26:42.908Z,4.70
2023-01-11T22:29:15.048Z,3.50
2023-01-11T22:31:45.803Z,3.83
2023-01-11T22:34:14.812Z,3.30
2023-01-11T22:36:43.427Z,3.73
2023-01-11T22:39:11.971Z,4.20
2023-01-11T22:41:40.429Z,4.17
2023-01-11T22:44:10.727Z,2.17
2023-01-11T22:46:39.490Z,2.40
2023-01-11T22:49:07.632Z,3.83
2023-01-11T22:51:35.792Z,4.03
2023-01-11T22:54:04.323Z,2.87
2023-01-11T22:56:32.825Z,4.07
2023-01-11T22:59:00.941Z,2.67
2023-01-11T23:01:31.807Z,5.27
2023-01-11T23:04:00.561Z,3.83
2023-01-11T23:06:30.510Z,4.93
2023-01-11T23:08:58.806Z,4.43
2023-01-11T23:11:46.500Z,5.10
2023-01-11T23:14:16.780Z,2.87
2023-01-11T23:16:46.781Z,4.90
2023-01-11T23:19:17.170Z,3.00
2023-01-11T23:21:46.728Z,7.73
2023-01-11T23:24:16.562Z,2.80
2023-01-11T23:26:44.941Z,5.07
2023-01-11T23:29:13.596Z,4.97
2023-01-11T23:31:42.743Z,4.23
2023-01-11T23:34:13.187Z,5.10
2023-01-11T23:36:42.623Z,4.70
2023-01-11T23:39:13.277Z,5.97
2023-01-11T23:41:58.458Z,5.07
2023-01-11T23:44:26.399Z,3.03
2023-01-11T23:47:11.758Z,3.40
2023-01-11T23:49:42.960Z,5.33
2023-01-11T23:52:11.234Z,4.93
2023-01-11T23:54:39.175Z,5.07
2023-01-11T23:57:09.283Z,5.70
2023-01-11T23:59:37.271Z,10.03
